Time;durP1;ratioP1;P1;durP2;ratioP2;P2;SDS_P1;SDS_P2;PMS_P1;PMS_P2;Temp;Humidity;BMP_temperature;BMP_pressure;BME280_temperature;BME280_humidity;BME280_pressure;Samples;Min_cycle;Max_cycle;Signal;HPM_P1;HPM_P2
2020/01/12 00:00:37;;;;;;;8.6;6.4;;;;;;;;;;;;;
2020/01/12 00:03:02;;;;;;;9.5;6.3;;;;;;;;;;;;;
2020/01/12 00:05:27;;;;;;;9.1;6.3;;;;;;;;;;;;;
2020/01/12 00:07:52;;;;;;;8.1;6.2;;;;;;;;;;;;;
2020/01/12 00:10:18;;;;;;;10.7;6.8;;;;;;;;;;;;;
2020/01/12 00:15:13;;;;;;;7.9;5.3;;;;;;;;;;;;;
2020/01/12 00:17:33;;;;;;;7.8;5.5;;;;;;;;;;;;;
2020/01/12 00:19:58;;;;;;;7;5;;;;;;;;;;;;;
2020/01/12 00:22:23;;;;;;;6.9;4.3;;;;;;;;;;;;;
2020/01/12 00:24:48;;;;;;;5.2;4;;;;;;;;;;;;;
2020/01/12 00:27:17;;;;;;;5.5;3.7;;;;;;;;;;;;;
2020/01/12 00:29:39;;;;;;;5;3.3;;;;;;;;;;;;;
2020/01/12 00:32:04;;;;;;;6.9;4.5;;;;;;;;;;;;;
2020/01/12 00:34:29;;;;;;;7.2;4.6;;;;;;;;;;;;;
2020/01/12 00:36:54;;;;;;;6.4;4.2;;;;;;;;;;;;;
2020/01/12 00:39:19;;;;;;;6.4;4.1;;;;;;;;;;;;;
2020/01/12 00:41:45;;;;;;;6.8;4.5;;;;;;;;;;;;;
2020/01/12 00:44:10;;;;;;;8;4.7;;;;;;;;;;;;;
2020/01/12 00:46:35;;;;;;;7.3;5.2;;;;;;;;;;;;;
2020/01/12 00:49:00;;;;;;;9.9;6.6;;;;;;;;;;;;;
2020/01/12 00:51:26;;;;;;;9.7;7.1;;;;;;;;;;;;;
2020/01/12 00:53:51;;;;;;;10.2;7;;;;;;;;;;;;;
2020/01/12 00:56:16;;;;;;;11.2;6.7;;;;;;;;;;;;;
2020/01/12 00:58:41;;;;;;;10.9;7.3;;;;;;;;;;;;;
2020/01/12 01:01:06;;;;;;;9.5;6.4;;;;;;;;;;;;;
2020/01/12 01:03:31;;;;;;;8.7;5.8;;;;;;;;;;;;;
2020/01/12 01:05:56;;;;;;;8.2;5.4;;;;;;;;;;;;;
2020/01/12 01:08:21;;;;;;;8.5;5;;;;;;;;;;;;;
2020/01/12 01:10:46;;;;;;;8.7;5.6;;;;;;;;;;;;;
2020/01/12 01:13:11;;;;;;;9.3;5.1;;;;;;;;;;;;;
2020/01/12 01:15:36;;;;;;;12.3;5.9;;;;;;;;;;;;;
2020/01/12 01:18:02;;;;;;;11.9;5.9;;;;;;;;;;;;;
2020/01/12 01:20:27;;;;;;;11.6;6.4;;;;;;;;;;;;;
2020/01/12 01:22:52;;;;;;;12.5;6.4;;;;;;;;;;;;;
2020/01/12 01:25:17;;;;;;;12.7;6.8;;;;;;;;;;;;;
2020/01/12 01:27:42;;;;;;;10.7;6.5;;;;;;;;;;;;;
2020/01/12 01:30:07;;;;;;;9.6;6.8;;;;;;;;;;;;;
2020/01/12 01:32:32;;;;;;;9.3;6.3;;;;;;;;;;;;;
2020/01/12 01:34:58;;;;;;;8.1;5.8;;;;;;;;;;;;;
2020/01/12 01:37:23;;;;;;;6.8;5.1;;;;;;;;;;;;;
2020/01/12 01:39:48;;;;;;;9.4;6.1;;;;;;;;;;;;;
2020/01/12 01:42:13;;;;;;;10.9;6.3;;;;;;;;;;;;;
2020/01/12 01:44:38;;;;;;;12.2;6.7;;;;;;;;;;;;;
2020/01/12 01:47:03;;;;;;;10.6;6.2;;;;;;;;;;;;;
2020/01/12 01:49:28;;;;;;;8;5;;;;;;;;;;;;;
2020/01/12 01:51:53;;;;;;;6.9;4.3;;;;;;;;;;;;;
2020/01/12 01:54:19;;;;;;;6.5;3.9;;;;;;;;;;;;;
2020/01/12 01:56:44;;;;;;;7.1;4;;;;;;;;;;;;;
2020/01/12 01:59:09;;;;;;;7;4.2;;;;;;;;;;;;;
2020/01/12 02:01:34;;;;;;;6.3;4.1;;;;;;;;;;;;;
2020/01/12 02:03:59;;;;;;;9.2;5.4;;;;;;;;;;;;;
2020/01/12 02:06:24;;;;;;;7.4;4.9;;;;;;;;;;;;;
2020/01/12 02:08:57;;;;;;;8.6;4.8;;;;;;;;;;;;;
2020/01/12 02:16:05;;;;;;;11;6.8;;;;;;;;;;;;;
2020/01/12 02:18:30;;;;;;;9.1;5.7;;;;;;;;;;;;;
2020/01/12 02:20:55;;;;;;;7.6;4.9;;;;;;;;;;;;;
2020/01/12 02:23:20;;;;;;;7.6;4.9;;;;;;;;;;;;;
2020/01/12 02:25:45;;;;;;;6.8;4.4;;;;;;;;;;;;;
2020/01/12 02:28:11;;;;;;;6.9;4.2;;;;;;;;;;;;;
2020/01/12 02:30:36;;;;;;;5.5;4.3;;;;;;;;;;;;;
2020/01/12 02:33:01;;;;;;;6.4;4.2;;;;;;;;;;;;;
2020/01/12 02:35:26;;;;;;;6.1;4.1;;;;;;;;;;;;;
2020/01/12 02:37:51;;;;;;;6;3.9;;;;;;;;;;;;;
2020/01/12 02:40:16;;;;;;;6;3.8;;;;;;;;;;;;;
2020/01/12 02:42:41;;;;;;;6.4;3.9;;;;;;;;;;;;;
2020/01/12 02:45:07;;;;;;;17.8;9.5;;;;;;;;;;;;;
2020/01/12 02:47:32;;;;;;;9.1;5.6;;;;;;;;;;;;;
2020/01/12 02:49:57;;;;;;;7.4;4.8;;;;;;;;;;;;;
2020/01/12 02:52:22;;;;;;;7.1;3.8;;;;;;;;;;;;;
2020/01/12 02:54:47;;;;;;;6.4;4;;;;;;;;;;;;;
2020/01/12 02:57:12;;;;;;;4.8;3.5;;;;;;;;;;;;;
2020/01/12 02:59:37;;;;;;;6.4;4.1;;;;;;;;;;;;;
2020/01/12 03:02:02;;;;;;;7.2;4.7;;;;;;;;;;;;;
2020/01/12 03:04:41;;;;;;;10.1;5.3;;;;;;;;;;;;;
2020/01/12 03:06:53;;;;;;;9.3;5.7;;;;;;;;;;;;;
2020/01/12 03:09:18;;;;;;;9.1;4.7;;;;;;;;;;;;;
2020/01/12 03:11:43;;;;;;;7.6;3.9;;;;;;;;;;;;;
2020/01/12 03:14:08;;;;;;;5.4;3.7;;;;;;;;;;;;;
2020/01/12 03:16:33;;;;;;;6.2;3.4;;;;;;;;;;;;;
2020/01/12 03:18:58;;;;;;;4.7;3.2;;;;;;;;;;;;;
2020/01/12 03:21:23;;;;;;;5.1;3.3;;;;;;;;;;;;;
2020/01/12 03:23:48;;;;;;;8.1;4.4;;;;;;;;;;;;;
2020/01/12 03:26:13;;;;;;;8.7;4.8;;;;;;;;;;;;;
2020/01/12 03:28:39;;;;;;;10.2;5.3;;;;;;;;;;;;;
2020/01/12 03:31:04;;;;;;;10.4;5.5;;;;;;;;;;;;;
2020/01/12 03:33:29;;;;;;;10.7;5.8;;;;;;;;;;;;;
2020/01/12 03:35:54;;;;;;;9.6;5.5;;;;;;;;;;;;;
2020/01/12 03:38:19;;;;;;;9.8;5.8;;;;;;;;;;;;;
2020/01/12 03:40:44;;;;;;;7.3;3.8;;;;;;;;;;;;;
2020/01/12 03:43:09;;;;;;;7.1;2.8;;;;;;;;;;;;;
2020/01/12 03:45:34;;;;;;;5.3;3.2;;;;;;;;;;;;;
2020/01/12 03:47:59;;;;;;;5.4;3.1;;;;;;;;;;;;;
2020/01/12 03:50:25;;;;;;;4.4;3;;;;;;;;;;;;;
2020/01/12 03:52:50;;;;;;;3.4;2.6;;;;;;;;;;;;;
2020/01/12 03:55:15;;;;;;;4.4;2.8;;;;;;;;;;;;;
2020/01/12 03:57:40;;;;;;;3.7;2.6;;;;;;;;;;;;;
2020/01/12 04:02:30;;;;;;;4.9;2.9;;;;;;;-1.82;85.80273;947.442;;;;
2020/01/12 04:04:55;;;;;;;2.6;2;;;;;;;-1.61;84.77832;947.5311;;;;
2020/01/12 04:07:20;;;;;;;3.7;2.2;;;;;;;-1.89;85.41113;947.4945;;;;
2020/01/12 04:09:45;;;;;;;3.7;2.3;;;;;;;-1.95;86.03027;947.4358;;;;
2020/01/12 04:12:11;;;;;;;4.1;2.7;;;;;;;-1.95;85.97656;947.5167;;;;
2020/01/12 04:14:36;;;;;;;5.3;3.4;;;;;;;-1.97;86.51465;947.4791;;;;
2020/01/12 04:17:01;;;;;;;4.6;2.6;;;;;;;-1.9;86.09668;947.4188;;;;
2020/01/12 04:19:26;;;;;;;3.6;2.5;;;;;;;-2.04;86.73438;947.3127;;;;
2020/01/12 04:21:51;;;;;;;4.2;2.8;;;;;;;-1.75;85.74023;947.3992;;;;
2020/01/12 04:24:16;;;;;;;3.9;2.3;;;;;;;-1.75;84.76172;947.4332;;;;
2020/01/12 04:26:41;;;;;;;4.3;2.6;;;;;;;-1.71;84.2168;947.3521;;;;
2020/01/12 04:29:06;;;;;;;4.3;2.6;;;;;;;-2.08;86.14844;947.4353;;;;
2020/01/12 04:31:31;;;;;;;7;4.6;;;;;;;-1.96;85.80859;947.4411;;;;
2020/01/12 04:33:56;;;;;;;6.2;3.8;;;;;;;-2;85.78809;947.3914;;;;
2020/01/12 04:36:21;;;;;;;4.7;3.3;;;;;;;-1.91;84.96582;947.4347;;;;
2020/01/12 04:38:47;;;;;;;3.9;3;;;;;;;-2.04;85.58105;947.4625;;;;
2020/01/12 04:41:12;;;;;;;4.6;2.9;;;;;;;-2;85.47754;947.4766;;;;
2020/01/12 04:43:37;;;;;;;5.5;2.8;;;;;;;-2.27;86.71875;947.4331;;;;
2020/01/12 04:46:02;;;;;;;7.2;4.5;;;;;;;-2.38;87.38379;947.4299;;;;
2020/01/12 04:48:27;;;;;;;5.6;3.8;;;;;;;-2.3;87.03516;947.4152;;;;
2020/01/12 04:50:52;;;;;;;8.2;5;;;;;;;-2.19;86.65625;947.4117;;;;
2020/01/12 04:53:17;;;;;;;6.8;4;;;;;;;-2.08;85.57422;947.4191;;;;
2020/01/12 04:55:43;;;;;;;6.6;3.2;;;;;;;-2.18;86.06152;947.4081;;;;
2020/01/12 04:58:08;;;;;;;4.2;2.8;;;;;;;-2.43;87.07324;947.3602;;;;
2020/01/12 05:00:33;;;;;;;4;2.7;;;;;;;-2.48;87.19629;947.3128;;;;
2020/01/12 05:02:59;;;;;;;4.6;2.9;;;;;;;-2.54;87.22754;947.2971;;;;
2020/01/12 05:05:24;;;;;;;4;2.5;;;;;;;-2.43;85.95508;947.2625;;;;
2020/01/12 05:07:49;;;;;;;5.1;2.3;;;;;;;-2.04;82.89648;947.2587;;;;
2020/01/12 05:10:15;;;;;;;5.4;2.7;;;;;;;-1.87;81.4668;947.1365;;;;
2020/01/12 05:12:40;;;;;;;5;3;;;;;;;-2.08;83.38867;947.1669;;;;
2020/01/12 05:15:05;;;;;;;6.4;2.8;;;;;;;-2.28;84.53418;947.1584;;;;
2020/01/12 05:17:31;;;;;;;5.3;2.8;;;;;;;-2.32;84.70508;947.1443;;;;
2020/01/12 05:19:56;;;;;;;3.7;2.3;;;;;;;-2.34;84.8877;947.0895;;;;
2020/01/12 05:22:21;;;;;;;4;2.4;;;;;;;-2.44;84.69043;947.1204;;;;
2020/01/12 05:24:46;;;;;;;4.6;2.5;;;;;;;-2.63;85.84766;947.1231;;;;
2020/01/12 05:27:11;;;;;;;5;3.3;;;;;;;-2.52;85.54883;947.0516;;;;
2020/01/12 05:29:36;;;;;;;8.7;4.9;;;;;;;-2.59;85.87695;947.0237;;;;
2020/01/12 05:32:02;;;;;;;4;3.2;;;;;;;-2.41;84.63086;947.0341;;;;
2020/01/12 05:34:27;;;;;;;5.2;3.9;;;;;;;-2.41;84.5752;946.9878;;;;
2020/01/12 05:36:53;;;;;;;6.4;3.7;;;;;;;-2.48;85.06836;946.9968;;;;
2020/01/12 05:39:18;;;;;;;5;3.5;;;;;;;-2.56;85.28613;947.0178;;;;
2020/01/12 05:41:43;;;;;;;5.2;3.1;;;;;;;-2.35;84.8418;946.9697;;;;
2020/01/12 05:44:08;;;;;;;4.2;3.1;;;;;;;-2.38;84.35938;946.8646;;;;
2020/01/12 05:46:33;;;;;;;3.6;2.3;;;;;;;-2.34;84.0791;946.9383;;;;
2020/01/12 05:48:58;;;;;;;3.8;2.5;;;;;;;-2.23;83.37109;946.848;;;;
2020/01/12 05:51:23;;;;;;;4.5;2.7;;;;;;;-2.37;83.72852;946.7864;;;;
2020/01/12 05:53:48;;;;;;;4.4;2.3;;;;;;;-2.29;83.8457;946.78;;;;
2020/01/12 05:56:13;;;;;;;3.9;2.5;;;;;;;-2.19;82.74512;946.7612;;;;
2020/01/12 05:58:38;;;;;;;3.9;2.3;;;;;;;-2.17;82.10742;946.7224;;;;
2020/01/12 06:01:04;;;;;;;3.3;2.1;;;;;;;-2.14;82.12402;946.7117;;;;
2020/01/12 06:03:29;;;;;;;4.5;2.7;;;;;;;-2.02;81.50391;946.7145;;;;
2020/01/12 06:05:54;;;;;;;4.1;2.3;;;;;;;-2.18;81.88379;946.6714;;;;
2020/01/12 06:08:19;;;;;;;4;2.1;;;;;;;-1.99;80.79004;946.7731;;;;
2020/01/12 06:10:44;;;;;;;6.9;3.3;;;;;;;-1.94;80.75391;946.7017;;;;
2020/01/12 06:13:09;;;;;;;6.1;3.4;;;;;;;-1.83;78.71387;946.7366;;;;
2020/01/12 06:15:34;;;;;;;6;3.4;;;;;;;-1.59;78.31445;946.7999;;;;
2020/01/12 06:17:59;;;;;;;4.3;2.7;;;;;;;-1.66;77.36816;946.7385;;;;
2020/01/12 06:20:24;;;;;;;3.4;2.5;;;;;;;-1.76;78.64844;946.7341;;;;
2020/01/12 06:22:50;;;;;;;3.7;2.5;;;;;;;-2.16;80.63477;946.7789;;;;
2020/01/12 06:25:31;;;;;;;5;2.9;;;;;;;-2.23;81.17676;946.8089;;;;
2020/01/12 06:27:56;;;;;;;4.1;3;;;;;;;-2.36;82.48047;946.8619;;;;
2020/01/12 06:30:21;;;;;;;8.1;4.1;;;;;;;-2.09;81.38965;946.8719;;;;
2020/01/12 06:32:46;;;;;;;7.6;4.5;;;;;;;-2.14;81.19238;946.9036;;;;
2020/01/12 06:35:11;;;;;;;7;4.5;;;;;;;-2.12;81.27344;946.9253;;;;
2020/01/12 06:37:36;;;;;;;5.7;4.1;;;;;;;-1.87;80.11426;946.9705;;;;
2020/01/12 06:40:01;;;;;;;5.4;4.3;;;;;;;-1.97;80.29492;947.009;;;;
2020/01/12 06:42:26;;;;;;;7.7;4.9;;;;;;;-2.06;80.97754;947.0679;;;;
2020/01/12 06:44:52;;;;;;;6.6;3.7;;;;;;;-1.9;80.16406;947.0345;;;;
2020/01/12 06:47:17;;;;;;;5.3;3.9;;;;;;;-1.84;79.76465;947.0662;;;;
2020/01/12 06:49:42;;;;;;;5.5;3.9;;;;;;;-1.83;79.2793;947.0925;;;;
2020/01/12 06:52:07;;;;;;;5.3;3.4;;;;;;;-1.65;79.08105;946.9915;;;;
2020/01/12 06:54:32;;;;;;;4.8;3.5;;;;;;;-1.72;78.98926;946.9813;;;;
2020/01/12 06:56:57;;;;;;;4.6;2.6;;;;;;;-1.49;77.2334;947.0691;;;;
2020/01/12 06:59:22;;;;;;;3.6;2.1;;;;;;;-1.61;77.3457;947.1105;;;;
2020/01/12 07:01:59;;;;;;;3.4;2;;;;;;;-1.51;77.01953;947.0823;;;;
2020/01/12 07:04:15;;;;;;;4;2.2;;;;;;;-1.55;76.55762;947.0056;;;;
2020/01/12 07:06:38;;;;;;;3.2;2.5;;;;;;;-1.62;77.62109;947.1164;;;;
2020/01/12 07:09:03;;;;;;;3.4;2.3;;;;;;;-1.37;76.52246;947.0733;;;;
2020/01/12 07:11:28;;;;;;;5.6;2.7;;;;;;;-1.28;76.28516;947.0955;;;;
2020/01/12 07:13:53;;;;;;;6;3.2;;;;;;;-1.5;76.77832;947.1138;;;;
2020/01/12 07:16:19;;;;;;;9.6;6.4;;;;;;;-1.6;77.33789;947.1328;;;;
2020/01/12 07:18:44;;;;;;;9.9;6.6;;;;;;;-1.7;77.1748;947.0889;;;;
2020/01/12 07:21:09;;;;;;;13.2;9.7;;;;;;;-1.69;77.68555;947.1495;;;;
2020/01/12 07:23:34;;;;;;;11.8;7.8;;;;;;;-1.69;77.98535;947.2114;;;;
2020/01/12 07:26:00;;;;;;;11.2;7.7;;;;;;;-1.92;78.89648;947.1689;;;;
2020/01/12 07:28:25;;;;;;;9.9;6.6;;;;;;;-2.07;79.4668;947.2232;;;;
2020/01/12 07:30:50;;;;;;;19.1;12.5;;;;;;;-2.1;79.9707;947.1269;;;;
2020/01/12 07:33:15;;;;;;;21.8;12.4;;;;;;;-2.2;81.92285;947.1783;;;;
2020/01/12 07:35:40;;;;;;;23.2;17;;;;;;;-2.32;81.68066;947.1813;;;;
2020/01/12 07:38:05;;;;;;;13.5;9.1;;;;;;;-2.16;80.8916;947.2031;;;;
2020/01/12 07:40:31;;;;;;;11.4;7.2;;;;;;;-2.14;80.42969;947.2083;;;;
2020/01/12 07:42:56;;;;;;;27.6;23.4;;;;;;;-2.03;79.58594;947.1548;;;;
2020/01/12 07:45:21;;;;;;;48.7;26.6;;;;;;;-2.11;79.57031;947.1601;;;;
2020/01/12 07:47:46;;;;;;;68.1;38;;;;;;;-2;79.56836;947.1552;;;;
2020/01/12 07:50:11;;;;;;;49.8;29.8;;;;;;;-1.36;78.30273;947.2534;;;;
2020/01/12 07:52:36;;;;;;;45;31.2;;;;;;;-0.12;73.09766;947.1595;;;;
2020/01/12 07:55:01;;;;;;;33;25.9;;;;;;;1.07;67.9668;947.1794;;;;
2020/01/12 07:57:26;;;;;;;19.7;12.9;;;;;;;1.81;65.03125;947.1516;;;;
2020/01/12 07:59:52;;;;;;;13.8;9.6;;;;;;;2.23;62.47461;947.0938;;;;
2020/01/12 08:02:17;;;;;;;14.3;10.1;;;;;;;2.81;60.86816;947.1131;;;;
2020/01/12 08:04:42;;;;;;;15.2;10.2;;;;;;;2.19;62.03223;947.1007;;;;
2020/01/12 08:07:08;;;;;;;15.2;11.2;;;;;;;2.74;61.08203;947.133;;;;
2020/01/12 08:09:32;;;;;;;15.1;10.7;;;;;;;3.22;59.27637;947.1231;;;;
2020/01/12 08:11:58;;;;;;;14.6;10.9;;;;;;;3.81;57.07617;947.0803;;;;
2020/01/12 08:14:23;;;;;;;17.4;13.5;;;;;;;3.63;55.88379;947.0262;;;;
2020/01/12 08:16:49;;;;;;;18.7;12.2;;;;;;;3.89;56.25684;947.1513;;;;
2020/01/12 08:19:14;;;;;;;12.9;9;;;;;;;4.45;54.0332;947.0211;;;;
2020/01/12 08:21:39;;;;;;;10.7;7.4;;;;;;;4.94;52.01074;947.0826;;;;
2020/01/12 08:24:04;;;;;;;15.1;9.4;;;;;;;5.48;50.80078;947.0097;;;;
2020/01/12 08:26:30;;;;;;;19.1;11.3;;;;;;;5.4;50.95996;947.1591;;;;
2020/01/12 08:28:55;;;;;;;30.2;18.4;;;;;;;4.98;51.72168;947.168;;;;
2020/01/12 08:31:21;;;;;;;27.9;17;;;;;;;4.84;52.16699;947.1481;;;;
2020/01/12 08:33:46;;;;;;;19.4;13.5;;;;;;;4.9;52.44434;947.0884;;;;
2020/01/12 08:36:11;;;;;;;19.4;11.7;;;;;;;5.09;51.87012;947.0768;;;;
2020/01/12 08:38:37;;;;;;;13;8.6;;;;;;;6.09;49.26855;947.0305;;;;
2020/01/12 08:41:02;;;;;;;12.6;8.3;;;;;;;7.2;46.28027;947.0592;;;;
2020/01/12 08:43:27;;;;;;;13.6;8.4;;;;;;;7.72;44.1709;947.0198;;;;
2020/01/12 08:45:53;;;;;;;12.8;8.9;;;;;;;7.79;44.38184;946.9889;;;;
2020/01/12 08:48:18;;;;;;;13.4;8.9;;;;;;;8.16;43.94434;947.0105;;;;
2020/01/12 08:50:44;;;;;;;12.1;7.3;;;;;;;7.2;44.16211;947.0078;;;;
2020/01/12 08:53:09;;;;;;;14.1;8.5;;;;;;;6.55;46.8457;947.0551;;;;
2020/01/12 08:55:35;;;;;;;15.1;9.4;;;;;;;4.79;50.80762;947.0594;;;;
2020/01/12 08:58:00;;;;;;;18.3;11.4;;;;;;;3.08;56.55176;947.1092;;;;
2020/01/12 09:00:25;;;;;;;18.3;9.4;;;;;;;1.9;59.86426;947.0577;;;;
2020/01/12 09:02:50;;;;;;;15.3;8.2;;;;;;;1.19;63.84082;947.0483;;;;
2020/01/12 09:05:15;;;;;;;22.7;11.9;;;;;;;1.08;65.35449;947.0025;;;;
2020/01/12 09:07:40;;;;;;;17.7;10.6;;;;;;;0.6;66.82031;947.0983;;;;
2020/01/12 09:10:06;;;;;;;17.9;8.8;;;;;;;0.51;67.77637;947.093;;;;
2020/01/12 09:12:31;;;;;;;15.1;7.7;;;;;;;0.4;67.66797;947.1047;;;;
2020/01/12 09:14:56;;;;;;;15.1;7.4;;;;;;;0.36;68.06348;947.0467;;;;
2020/01/12 09:17:22;;;;;;;21.1;9.3;;;;;;;0.62;67.86035;946.9916;;;;
2020/01/12 09:19:47;;;;;;;21.6;8.9;;;;;;;0.76;66.94629;947.0961;;;;
2020/01/12 09:22:13;;;;;;;19.4;12.4;;;;;;;0.63;65.90918;947.0977;;;;
2020/01/12 09:24:38;;;;;;;16.5;7.9;;;;;;;0.91;66.29004;947.0867;;;;
2020/01/12 09:27:03;;;;;;;18.7;6.9;;;;;;;0.98;66.7793;947.175;;;;
2020/01/12 09:29:28;;;;;;;10.9;5.2;;;;;;;0.9;65.83008;947.2388;;;;
2020/01/12 09:31:53;;;;;;;18.9;5.9;;;;;;;1.21;66.3125;947.2317;;;;
2020/01/12 09:34:18;;;;;;;12.3;5.4;;;;;;;1.22;65.36426;947.1947;;;;
2020/01/12 09:36:44;;;;;;;58.1;7.5;;;;;;;1.35;64.51367;947.2526;;;;
2020/01/12 09:39:09;;;;;;;28;4.5;;;;;;;1.56;62.50098;947.2863;;;;
2020/01/12 09:41:34;;;;;;;18.9;4.5;;;;;;;1.61;60.60742;947.2737;;;;
2020/01/12 09:44:00;;;;;;;15;5.4;;;;;;;2.1;60.79883;947.2057;;;;
2020/01/12 09:46:25;;;;;;;10;3.9;;;;;;;1.88;60.53223;947.1508;;;;
2020/01/12 09:48:50;;;;;;;17.7;6.5;;;;;;;1.77;61.90527;947.1633;;;;
2020/01/12 09:51:16;;;;;;;23.8;5.5;;;;;;;1.59;63.30957;947.2283;;;;
2020/01/12 09:53:41;;;;;;;58.8;10;;;;;;;1.77;64.25391;947.1248;;;;
2020/01/12 09:56:06;;;;;;;44.2;9;;;;;;;1.7;64.09668;947.0988;;;;
2020/01/12 09:58:32;;;;;;;26.8;6.6;;;;;;;1.82;62.52637;947.0761;;;;
2020/01/12 10:00:57;;;;;;;23.7;6.3;;;;;;;2.07;61.37793;947.0142;;;;
2020/01/12 10:03:22;;;;;;;24.4;6.4;;;;;;;2.19;61.02539;946.9816;;;;
2020/01/12 10:05:47;;;;;;;25.4;7;;;;;;;2.1;60.98926;946.9914;;;;
2020/01/12 10:08:13;;;;;;;22.7;6;;;;;;;2.39;60.40234;947.0017;;;;
2020/01/12 10:10:38;;;;;;;15.4;4.9;;;;;;;2.58;59.70215;946.87;;;;
2020/01/12 10:13:03;;;;;;;23.2;4.6;;;;;;;2.54;59.25879;946.9961;;;;
2020/01/12 10:15:28;;;;;;;18.3;4.2;;;;;;;2.65;59.11816;946.9888;;;;
2020/01/12 10:17:53;;;;;;;19.5;3.3;;;;;;;2.71;55.73047;946.9977;;;;
2020/01/12 10:20:19;;;;;;;16.8;3.5;;;;;;;2.79;53.3623;946.9536;;;;
2020/01/12 10:22:44;;;;;;;10.2;2.5;;;;;;;2.95;50.8252;946.9214;;;;
2020/01/12 10:25:10;;;;;;;16.3;2.4;;;;;;;3.04;50.99414;946.9022;;;;
2020/01/12 10:27:35;;;;;;;12.8;3.3;;;;;;;2.95;51.20703;946.9261;;;;
2020/01/12 10:30:00;;;;;;;17.3;4.6;;;;;;;3.01;51.9668;946.8685;;;;
2020/01/12 10:32:25;;;;;;;23;7.4;;;;;;;3.22;51.50879;946.8432;;;;
2020/01/12 10:34:50;;;;;;;40.7;8.5;;;;;;;3.37;51.48242;946.8276;;;;
2020/01/12 10:37:15;;;;;;;18.7;5.2;;;;;;;3.46;49.25781;946.7717;;;;
2020/01/12 10:39:40;;;;;;;12.6;4.3;;;;;;;3.6;48.78027;946.7598;;;;
2020/01/12 10:42:05;;;;;;;20.5;5.7;;;;;;;3.98;49.08203;946.7836;;;;
2020/01/12 10:44:31;;;;;;;12.2;3.9;;;;;;;4.3;50.03125;946.7087;;;;
2020/01/12 10:46:56;;;;;;;12.5;3.8;;;;;;;4.19;48.25195;946.7512;;;;
2020/01/12 10:49:21;;;;;;;32.3;5.2;;;;;;;4.33;48.63867;946.6358;;;;
2020/01/12 10:51:46;;;;;;;17.7;3.3;;;;;;;4.35;46.83984;946.5652;;;;
2020/01/12 10:54:11;;;;;;;17.1;3;;;;;;;4.52;46.41992;946.58;;;;
2020/01/12 10:56:36;;;;;;;11.8;2.8;;;;;;;4.59;45.81934;946.4769;;;;
2020/01/12 10:59:01;;;;;;;14.2;2.8;;;;;;;4.85;46.00586;946.5158;;;;
2020/01/12 11:01:26;;;;;;;9.5;2.6;;;;;;;4.99;45.15137;946.5092;;;;
2020/01/12 11:03:51;;;;;;;11.6;2.6;;;;;;;5.14;44.70605;946.4847;;;;
2020/01/12 11:06:17;;;;;;;5.7;2.2;;;;;;;5.23;44.41113;946.3725;;;;
2020/01/12 11:08:42;;;;;;;6.3;2;;;;;;;5.2;42.18555;946.3519;;;;
2020/01/12 11:11:07;;;;;;;8.8;2.1;;;;;;;5.34;41.09375;946.3669;;;;
2020/01/12 11:13:32;;;;;;;3.6;1.8;;;;;;;5.38;42.22656;946.3403;;;;
2020/01/12 11:15:57;;;;;;;5.2;1.8;;;;;;;5.39;40.50098;946.2902;;;;
2020/01/12 11:18:22;;;;;;;5.4;2.1;;;;;;;5.48;40.18262;946.2767;;;;
2020/01/12 11:20:47;;;;;;;7.4;3.3;;;;;;;5.4;40.91895;946.2352;;;;
2020/01/12 11:23:12;;;;;;;9.6;3.4;;;;;;;5.48;41.73926;946.2758;;;;
2020/01/12 11:25:38;;;;;;;11.1;3.4;;;;;;;5.62;41.78711;946.2629;;;;
2020/01/12 11:28:03;;;;;;;8.1;2.7;;;;;;;5.74;40.7041;946.2427;;;;
2020/01/12 11:30:28;;;;;;;7.9;2.3;;;;;;;5.74;40.61426;946.272;;;;
2020/01/12 11:32:54;;;;;;;9.7;2;;;;;;;5.8;39.8623;946.1922;;;;
2020/01/12 11:35:19;;;;;;;4.2;1.7;;;;;;;5.84;39.38086;946.1969;;;;
2020/01/12 11:37:44;;;;;;;6.4;1.9;;;;;;;5.82;40.32715;946.1502;;;;
2020/01/12 11:40:10;;;;;;;6.6;1.9;;;;;;;5.92;40.05469;946.1562;;;;
2020/01/12 11:42:35;;;;;;;5.8;2.1;;;;;;;5.97;39.86621;946.0767;;;;
2020/01/12 11:45:00;;;;;;;6.9;1.7;;;;;;;6.02;39.74707;946.0956;;;;
2020/01/12 11:47:26;;;;;;;6.5;1.6;;;;;;;6.09;40.73828;946.067;;;;
2020/01/12 11:49:51;;;;;;;4.4;1.6;;;;;;;6.16;42.04395;946.0656;;;;
2020/01/12 11:52:16;;;;;;;3.5;1.7;;;;;;;6.24;42.97852;946.0697;;;;
2020/01/12 11:54:41;;;;;;;3.1;1.5;;;;;;;6.33;44.18652;946.1127;;;;
2020/01/12 11:57:07;;;;;;;3;1.4;;;;;;;6.49;43.89551;946.1108;;;;
2020/01/12 11:59:32;;;;;;;5.2;1.7;;;;;;;6.47;45.50098;946.077;;;;
2020/01/12 12:01:57;;;;;;;7.5;1.7;;;;;;;6.48;44.87988;946.0361;;;;
2020/01/12 12:04:22;;;;;;;7.8;2.1;;;;;;;6.59;44.48438;946.0466;;;;
2020/01/12 12:06:47;;;;;;;10.3;1.9;;;;;;;6.62;46.61426;946.0258;;;;
2020/01/12 12:09:12;;;;;;;6.4;1.8;;;;;;;6.69;48.11621;946.0033;;;;
2020/01/12 12:11:39;;;;;;;3.4;1.4;;;;;;;6.86;45.55469;946.0619;;;;
2020/01/12 12:14:04;;;;;;;2.2;1.3;;;;;;;6.83;45.16602;945.9933;;;;
2020/01/12 12:16:29;;;;;;;4.2;1.8;;;;;;;6.98;45.16992;946.0128;;;;
2020/01/12 12:18:54;;;;;;;5.1;1.7;;;;;;;7.1;45.02344;945.9263;;;;
2020/01/12 12:21:19;;;;;;;4.5;2;;;;;;;7.08;44.66016;945.9567;;;;
2020/01/12 12:23:44;;;;;;;7.2;2;;;;;;;6.94;44.46387;945.9149;;;;
2020/01/12 12:26:11;;;;;;;5;1.6;;;;;;;6.92;46.14844;945.8254;;;;
2020/01/12 12:28:36;;;;;;;4.6;1.7;;;;;;;7.1;45.98633;945.8883;;;;
2020/01/12 12:31:01;;;;;;;3.5;1.3;;;;;;;6.97;41.64746;945.8195;;;;
2020/01/12 12:33:26;;;;;;;3;1.4;;;;;;;6.91;41.53906;945.7792;;;;
2020/01/12 12:35:52;;;;;;;5.8;1.2;;;;;;;7;41.20898;945.7819;;;;
2020/01/12 12:38:17;;;;;;;4.6;1.4;;;;;;;7.01;40.74609;945.6843;;;;
2020/01/12 12:40:43;;;;;;;2.1;1.1;;;;;;;7.02;41.0293;945.7297;;;;
2020/01/12 12:43:08;;;;;;;2.8;1.4;;;;;;;6.91;42.01563;945.6613;;;;
2020/01/12 12:45:33;;;;;;;2.6;1.1;;;;;;;6.88;41.64941;945.6166;;;;
2020/01/12 12:47:58;;;;;;;3.5;1.3;;;;;;;6.86;43.36914;945.6439;;;;
2020/01/12 12:50:24;;;;;;;4.5;1.3;;;;;;;7.05;42.19824;945.6403;;;;
2020/01/12 12:52:49;;;;;;;2.4;1.2;;;;;;;7.17;40.28516;945.6072;;;;
2020/01/12 12:55:15;;;;;;;3.8;1.5;;;;;;;7.21;41.03613;945.6088;;;;
2020/01/12 12:57:40;;;;;;;2.5;1.2;;;;;;;7.21;40.16406;945.563;;;;
2020/01/12 13:00:06;;;;;;;3.3;1.3;;;;;;;7.28;39.80859;945.5377;;;;
2020/01/12 13:02:31;;;;;;;2.5;1.1;;;;;;;7.21;39.6543;945.5631;;;;
2020/01/12 13:04:56;;;;;;;2.7;1.2;;;;;;;7.35;39.47363;945.5962;;;;
2020/01/12 13:07:21;;;;;;;5.1;1.5;;;;;;;7.43;40.59277;945.5895;;;;
2020/01/12 13:09:46;;;;;;;3.6;1.8;;;;;;;7.4;41.23633;945.6175;;;;
2020/01/12 13:12:12;;;;;;;5.3;1.5;;;;;;;7.39;40.86035;945.5847;;;;
2020/01/12 13:14:37;;;;;;;3.6;1.8;;;;;;;7.47;41.23145;945.5273;;;;
2020/01/12 13:17:03;;;;;;;2.9;1.4;;;;;;;7.31;41.5332;945.5472;;;;
2020/01/12 13:19:28;;;;;;;3.7;1.5;;;;;;;7.38;42.69531;945.5994;;;;
2020/01/12 13:21:53;;;;;;;3;1.4;;;;;;;7.59;43.80566;945.6289;;;;
2020/01/12 13:24:19;;;;;;;2.8;1.5;;;;;;;7.88;43.23438;945.6269;;;;
2020/01/12 13:26:44;;;;;;;3;1.5;;;;;;;8.16;42.85352;945.6389;;;;
2020/01/12 13:29:09;;;;;;;3.4;1.6;;;;;;;8.34;42.74609;945.6083;;;;
2020/01/12 13:31:34;;;;;;;5.2;1.6;;;;;;;8.43;42.75488;945.5779;;;;
2020/01/12 13:33:59;;;;;;;2.8;1.5;;;;;;;8.58;41.28027;945.6036;;;;
2020/01/12 13:36:25;;;;;;;3.5;1.3;;;;;;;8.76;40.57129;945.5655;;;;
2020/01/12 13:38:50;;;;;;;2;1.3;;;;;;;8.99;40.54688;945.5545;;;;
2020/01/12 13:41:15;;;;;;;1.8;1.2;;;;;;;9.56;38.69727;945.5557;;;;
2020/01/12 13:43:40;;;;;;;2.3;1.3;;;;;;;10.41;38.2832;945.606;;;;
2020/01/12 13:46:07;;;;;;;4.1;1.8;;;;;;;11.77;35.12891;945.5259;;;;
2020/01/12 13:48:32;;;;;;;2.6;1.4;;;;;;;13.51;31.92383;945.4489;;;;
2020/01/12 13:50:57;;;;;;;4.5;1.4;;;;;;;15.04;29.52148;945.4338;;;;
2020/01/12 13:53:22;;;;;;;3.7;1.4;;;;;;;16.42;26.50195;945.4116;;;;
2020/01/12 13:55:47;;;;;;;3.2;1.5;;;;;;;18.02;24.97266;945.5048;;;;
2020/01/12 13:58:12;;;;;;;2.9;1.5;;;;;;;19.37;23.51172;945.4738;;;;
2020/01/12 14:00:38;;;;;;;3.1;1.2;;;;;;;20.47;21.93457;945.4968;;;;
2020/01/12 14:03:04;;;;;;;3.4;1.5;;;;;;;21.94;19.96875;945.443;;;;
2020/01/12 14:05:29;;;;;;;21.9;5.2;;;;;;;21.84;18.94434;945.4346;;;;
2020/01/12 14:07:54;;;;;;;18;4.9;;;;;;;20.79;20.0918;945.4031;;;;
2020/01/12 14:10:19;;;;;;;17.1;4;;;;;;;19.9;19.53809;945.3723;;;;
2020/01/12 14:12:44;;;;;;;14.9;3.9;;;;;;;16.91;21.71191;945.4413;;;;
2020/01/12 14:15:10;;;;;;;18.8;5.2;;;;;;;14.33;25.2002;945.4278;;;;
2020/01/12 14:17:35;;;;;;;8.5;3.7;;;;;;;12.91;26.82813;945.4539;;;;
2020/01/12 14:20:00;;;;;;;15.3;4.5;;;;;;;11.56;28.98926;945.4584;;;;
2020/01/12 14:22:26;;;;;;;10.5;4;;;;;;;10.03;31.50977;945.4303;;;;
2020/01/12 14:24:51;;;;;;;21.8;4.7;;;;;;;8.95;33.71777;945.3795;;;;
2020/01/12 14:27:17;;;;;;;12.5;3.7;;;;;;;8.06;34.82813;945.4485;;;;
2020/01/12 14:29:43;;;;;;;15.5;4.1;;;;;;;7.5;36.70996;945.3667;;;;
2020/01/12 14:32:08;;;;;;;12.5;4.1;;;;;;;7.12;37.3916;945.342;;;;
2020/01/12 14:34:34;;;;;;;15;4.5;;;;;;;7.13;38.29883;945.3383;;;;
2020/01/12 14:36:59;;;;;;;30;7.1;;;;;;;7.75;37.44629;945.2816;;;;
2020/01/12 14:39:24;;;;;;;28.6;8.2;;;;;;;8.13;36.56055;945.243;;;;
2020/01/12 14:41:49;;;;;;;39.6;22.8;;;;;;;8;36.65137;945.3197;;;;
2020/01/12 14:44:15;;;;;;;16.2;6.8;;;;;;;7.72;36.43457;945.3599;;;;
2020/01/12 14:46:40;;;;;;;19.1;7.7;;;;;;;7.9;36.99512;945.3681;;;;
2020/01/12 14:49:05;;;;;;;21.1;8.6;;;;;;;8.21;36.97461;945.3951;;;;
2020/01/12 14:51:30;;;;;;;23.2;9.3;;;;;;;8.33;40.26855;945.3602;;;;
2020/01/12 14:53:56;;;;;;;18.9;9.7;;;;;;;8.24;38.71582;945.4376;;;;
2020/01/12 14:56:21;;;;;;;20.6;9.3;;;;;;;8.04;39.59375;945.536;;;;
2020/01/12 14:58:46;;;;;;;22.1;9.5;;;;;;;8.04;40.36621;945.5797;;;;
2020/01/12 15:01:12;;;;;;;20.7;8.8;;;;;;;7.94;40.90234;945.6082;;;;
2020/01/12 15:03:37;;;;;;;45.5;9.4;;;;;;;7.66;40.11523;945.5903;;;;
2020/01/12 15:06:02;;;;;;;15.2;3.7;;;;;;;7.13;46.11426;945.6724;;;;
2020/01/12 15:08:28;;;;;;;21.5;4.1;;;;;;;6.67;46.67676;945.6478;;;;
2020/01/12 15:10:54;;;;;;;27.7;4.8;;;;;;;6.43;47.50879;945.7368;;;;
2020/01/12 15:13:18;;;;;;;26.2;5.5;;;;;;;6.19;47.46094;945.8066;;;;
2020/01/12 15:15:44;;;;;;;37.9;6.7;;;;;;;5.87;48.18262;945.7534;;;;
2020/01/12 15:18:09;;;;;;;15.7;7.6;;;;;;;5.66;47.48047;945.6948;;;;
2020/01/12 15:20:34;;;;;;;24.2;9;;;;;;;5.46;47.58398;945.7508;;;;
2020/01/12 15:23:00;;;;;;;27.8;9.5;;;;;;;5.25;47.17578;945.7733;;;;
2020/01/12 15:25:32;;;;;;;38.1;12.6;;;;;;;5.24;47.50098;945.7871;;;;
2020/01/12 15:27:50;;;;;;;34.2;17.2;;;;;;;5.06;52.33984;945.8943;;;;
2020/01/12 15:30:15;;;;;;;38;16.2;;;;;;;4.62;54.47168;945.9186;;;;
2020/01/12 15:32:40;;;;;;;31.9;13.8;;;;;;;4.35;54.78711;945.9652;;;;